Skip Navigation LinksHome page > Weather > Current weather Skip Navigation Links

Current Weather

Metropolitan Oakland Intl, Oakland, Calif.

For information only: do not use for flight planning or navigation.
Latest weather
Observation time Monday, January 18, 2021 11:53 PM PST
Local time Tuesday, January 19, 2021 1:10 AM PST
Flight conditions Visual Meteorological Conditions
Winds
Wind direction variable
Wind speed 7 mph
Wind gusting to 17 mph
Peak wind speed 31 mph, 11:07 PM
Peak wind direction North (350°)
Visibility 10 mi.
Sky condition
Ceiling unlimited
Cloud layer few clouds 18,000 ft.
Temperature 66°F
Dewpoint 14°F
Altimeter 29.93 in.Hg
Derived measurements
Relative humidity 13%
Density altitude 508 ft.
Sea-level pressure 29.93 in.Hg
Climate data
Temperature minimum, last 24 hours 51°F
Temperature maximum, last 24 hours 83°F
Remarks
Automated weather observing station with precipitation discriminator.
METAR KOAK 190753Z VRB06G15KT 10SM FEW180 19/M10 A2993 RMK AO2 PK WND 35027/0707 SLP135 T01891100 402830106

Settings

Location code

InnerDrive.Weather 4.0.6770.0 Release CLR 4.0.30319.42000
Copyright ©2018 Inner Drive Technology. All rights reserved. Portions Copyright ©1986-2018 David Braverman.

Find weather

Site navigation


Skip Navigation Links

Place info

Page info

PayPal - The safer, easier way to pay online!

Return home.

Copyright ©2021 Inner Drive Technology. Purveyors of fine, hand-crafted computer software. Page printed 2021-01-19T09:10:18 UTC.